Time;durP1;ratioP1;P1;durP2;ratioP2;P2;SDS_P1;SDS_P2;PMS_P1;PMS_P2;Temp;Humidity;BMP_temperature;BMP_pressure;BME280_temperature;BME280_humidity;BME280_pressure;Samples;Min_cycle;Max_cycle;Signal;HPM_P1;HPM_P2
2022/10/01 00:01:18;;;;;;;10.30;7.82;;;11.40;99.90;;;;;;6244417;23;20460;-76
2022/10/01 00:03:45;;;;;;;11.27;7.85;;;11.40;99.90;;;;;;6243749;23;20050;-83
2022/10/01 00:06:17;;;;;;;11.73;8.65;;;11.40;99.90;;;;;;6243660;23;20024;-80
2022/10/01 00:08:47;;;;;;;10.93;7.97;;;11.40;99.90;;;;;;6242668;23;20024;-83
2022/10/01 00:11:18;;;;;;;11.75;8.60;;;11.30;99.90;;;;;;6244020;22;20028;-84
2022/10/01 00:13:45;;;;;;;14.15;9.23;;;11.30;99.90;;;;;;6243128;23;20063;-80
2022/10/01 00:16:14;;;;;;;15.77;9.07;;;11.30;99.90;;;;;;6245311;22;20028;-79
2022/10/01 00:18:42;;;;;;;14.52;9.63;;;11.30;99.90;;;;;;6246024;22;20059;-79
2022/10/01 00:21:10;;;;;;;12.38;8.95;;;11.30;99.90;;;;;;6243988;22;20031;-87
2022/10/01 00:23:37;;;;;;;16.00;9.85;;;11.30;99.90;;;;;;6243389;22;20020;-82
2022/10/01 00:26:27;;;;;;;17.15;10.27;;;11.30;99.90;;;;;;6243784;22;20024;-85
2022/10/01 00:28:55;;;;;;;13.23;10.13;;;11.30;99.90;;;;;;6244235;22;20373;-82
2022/10/01 00:31:23;;;;;;;16.77;9.80;;;11.20;99.90;;;;;;6216899;23;20027;-80
2022/10/01 00:33:51;;;;;;;14.73;10.93;;;11.20;99.90;;;;;;6244318;22;20020;-76
2022/10/01 00:36:17;;;;;;;19.88;12.32;;;11.20;99.90;;;;;;6242690;23;20444;-77
2022/10/01 00:38:45;;;;;;;15.70;10.82;;;11.20;99.90;;;;;;6244458;22;20127;-73
2022/10/01 00:41:11;;;;;;;17.25;12.15;;;11.20;99.90;;;;;;6244160;22;20166;-81
2022/10/01 00:43:42;;;;;;;16.88;10.88;;;11.20;99.90;;;;;;6242593;23;20456;-76
2022/10/01 00:46:28;;;;;;;14.85;11.13;;;11.20;99.90;;;;;;6242470;23;20059;-73
2022/10/01 00:49:05;;;;;;;15.30;11.15;;;11.20;99.90;;;;;;6243444;22;20099;-74
2022/10/01 00:51:49;;;;;;;18.10;10.55;;;11.20;99.90;;;;;;6241924;23;20093;-74
2022/10/01 00:54:22;;;;;;;17.98;11.27;;;11.10;99.90;;;;;;6243514;22;20027;-76
2022/10/01 00:56:52;;;;;;;17.10;10.68;;;11.10;99.90;;;;;;6241818;23;20043;-76
2022/10/01 00:59:19;;;;;;;19.33;12.05;;;11.10;99.90;;;;;;6243944;22;20020;-75
2022/10/01 01:01:45;;;;;;;15.18;10.32;;;11.10;99.90;;;;;;6243432;22;20023;-81
2022/10/01 01:04:16;;;;;;;15.48;9.68;;;11.10;99.90;;;;;;6242360;23;20066;-77
2022/10/01 01:06:56;;;;;;;15.00;10.10;;;11.10;99.90;;;;;;6242828;23;20103;-76
2022/10/01 01:09:33;;;;;;;14.70;10.73;;;11.10;99.90;;;;;;6242048;23;20105;-79
2022/10/01 01:12:30;;;;;;;11.98;9.10;;;11.10;99.90;;;;;;6243633;22;20027;-76
2022/10/01 01:15:17;;;;;;;16.52;11.27;;;11.10;99.90;;;;;;6241914;22;20722;-80
2022/10/01 01:18:26;;;;;;;17.08;10.35;;;11.10;99.90;;;;;;6241520;23;20020;-78
2022/10/01 01:21:04;;;;;;;14.70;9.65;;;11.10;99.90;;;;;;6130003;23;20032;-82
2022/10/01 01:23:48;;;;;;;13.32;9.30;;;11.10;99.90;;;;;;6229832;23;20028;-75
2022/10/01 01:26:30;;;;;;;20.45;10.60;;;11.10;99.90;;;;;;6241570;23;20490;-76
2022/10/01 01:29:03;;;;;;;13.38;9.65;;;11.10;99.90;;;;;;6241436;23;20078;-78
2022/10/01 01:31:36;;;;;;;14.85;9.90;;;11.10;99.90;;;;;;6241881;23;20174;-76
2022/10/01 01:34:07;;;;;;;19.02;10.73;;;11.10;99.90;;;;;;6243505;22;20453;-77
2022/10/01 01:36:36;;;;;;;17.08;10.75;;;11.10;99.90;;;;;;6216296;23;20031;-75
2022/10/01 01:39:07;;;;;;;22.58;11.65;;;11.10;99.90;;;;;;6243184;22;20085;-75
2022/10/01 01:41:37;;;;;;;16.83;10.45;;;11.10;99.90;;;;;;6243528;22;20020;-79
2022/10/01 01:44:07;;;;;;;20.63;10.18;;;11.10;99.90;;;;;;6241552;23;20376;-75
2022/10/01 01:46:37;;;;;;;18.27;10.05;;;11.10;99.90;;;;;;6241447;23;20026;-77
2022/10/01 01:49:04;;;;;;;17.33;9.70;;;11.10;99.90;;;;;;6216068;23;20081;-75
2022/10/01 01:51:38;;;;;;;18.25;9.23;;;11.10;99.90;;;;;;6243193;22;20035;-75
2022/10/01 01:54:04;;;;;;;13.98;9.80;;;11.00;99.90;;;;;;6241430;23;20020;-77
2022/10/01 01:56:30;;;;;;;12.88;8.75;;;11.10;99.90;;;;;;6216440;23;20457;-77
2022/10/01 01:58:59;;;;;;;13.18;9.80;;;11.10;99.90;;;;;;6241803;23;20024;-75
2022/10/01 02:01:34;;;;;;;12.75;9.07;;;11.10;99.90;;;;;;6241847;23;20103;-75
2022/10/01 02:04:22;;;;;;;10.98;8.45;;;11.10;99.90;;;;;;6241503;23;20134;-77
2022/10/01 02:07:09;;;;;;;11.95;8.27;;;11.00;99.90;;;;;;6243402;23;20023;-75
2022/10/01 02:09:53;;;;;;;11.30;7.85;;;11.10;99.90;;;;;;6241246;23;20491;-76
2022/10/01 02:12:31;;;;;;;11.30;8.02;;;11.10;99.90;;;;;;6242883;23;20031;-75
2022/10/01 02:15:09;;;;;;;13.10;9.50;;;11.10;99.90;;;;;;6242806;22;20016;-76
2022/10/01 02:17:49;;;;;;;12.30;8.15;;;11.10;99.90;;;;;;6243075;23;20024;-76
2022/10/01 02:20:36;;;;;;;13.43;8.95;;;11.10;99.90;;;;;;6242489;22;20451;-76
2022/10/01 02:23:08;;;;;;;17.00;8.50;;;11.10;99.90;;;;;;6242758;23;20032;-75
2022/10/01 02:25:42;;;;;;;11.45;6.25;;;11.10;99.90;;;;;;6241233;23;20023;-75
2022/10/01 02:28:15;;;;;;;11.35;6.00;;;11.10;99.90;;;;;;6243457;22;20059;-74
2022/10/01 02:30:45;;;;;;;9.77;6.78;;;11.00;99.90;;;;;;6241172;23;20067;-80
2022/10/01 02:33:14;;;;;;;11.95;7.65;;;11.10;99.90;;;;;;6216685;23;20020;-78
2022/10/01 02:35:43;;;;;;;12.30;8.18;;;11.10;99.90;;;;;;6243299;22;20016;-77
2022/10/01 02:38:11;;;;;;;9.77;6.82;;;11.10;99.90;;;;;;6242926;22;20068;-76
2022/10/01 02:40:43;;;;;;;11.98;7.22;;;11.10;99.90;;;;;;6243153;22;20031;-75
2022/10/01 02:43:28;;;;;;;10.52;6.82;;;11.10;99.90;;;;;;6243080;22;20024;-79
2022/10/01 02:46:01;;;;;;;9.70;6.85;;;11.10;99.90;;;;;;6242937;22;20063;-74
2022/10/01 02:48:27;;;;;;;10.25;6.68;;;11.10;99.90;;;;;;6246864;22;20021;-83
2022/10/01 02:51:00;;;;;;;9.98;6.40;;;11.10;99.90;;;;;;6242872;22;20483;-83
2022/10/01 02:53:59;;;;;;;9.23;6.55;;;11.10;99.90;;;;;;6243134;22;20054;-76
2022/10/01 02:59:10;;;;;;;8.95;5.80;;;11.10;99.90;;;;;;6240918;23;20030;-82
2022/10/01 03:01:38;;;;;;;10.20;7.22;;;11.20;99.90;;;;;;6216599;23;20052;-81
2022/10/01 03:04:04;;;;;;;7.60;5.90;;;11.20;99.90;;;;;;6244631;23;20028;-82
2022/10/01 03:06:30;;;;;;;8.32;5.47;;;11.20;99.90;;;;;;6243733;23;20054;-82
2022/10/01 03:08:58;;;;;;;8.85;5.78;;;11.20;99.90;;;;;;6244414;22;20020;-78
2022/10/01 03:11:25;;;;;;;8.70;6.07;;;11.20;99.90;;;;;;6242842;23;20030;-77
2022/10/01 03:13:53;;;;;;;8.05;5.93;;;11.20;99.90;;;;;;6244598;22;20519;-79
2022/10/01 03:16:19;;;;;;;7.22;5.07;;;11.20;99.90;;;;;;6242689;22;20024;-77
2022/10/01 03:18:48;;;;;;;8.18;5.13;;;11.30;99.90;;;;;;6244524;22;20047;-77
2022/10/01 03:21:14;;;;;;;8.85;5.57;;;11.30;99.90;;;;;;6244369;23;20445;-79
2022/10/01 03:23:40;;;;;;;9.13;4.95;;;11.30;99.90;;;;;;6242610;23;20460;-77
2022/10/01 03:26:06;;;;;;;7.50;4.28;;;11.30;99.90;;;;;;6244167;23;20337;-78
2022/10/01 03:28:32;;;;;;;6.47;4.32;;;11.30;99.90;;;;;;6242653;23;20035;-76
2022/10/01 03:31:08;;;;;;;6.32;4.38;;;11.40;99.90;;;;;;6245737;22;20023;-78
2022/10/01 03:33:35;;;;;;;5.97;4.38;;;11.40;99.90;;;;;;6247281;22;20028;-81
2022/10/01 03:36:04;;;;;;;6.18;4.10;;;11.40;99.90;;;;;;6245103;23;20028;-77
2022/10/01 03:38:30;;;;;;;6.70;3.88;;;11.40;99.90;;;;;;6242798;23;20103;-76
2022/10/01 03:40:56;;;;;;;5.43;3.28;;;11.40;99.90;;;;;;6242717;23;20016;-77
2022/10/01 03:43:22;;;;;;;5.10;3.55;;;11.40;99.90;;;;;;6245675;22;20356;-83
2022/10/01 03:45:48;;;;;;;5.07;3.38;;;11.40;99.90;;;;;;6246287;22;20027;-77
2022/10/01 03:48:14;;;;;;;4.30;2.80;;;11.50;99.90;;;;;;6244432;23;20318;-77
2022/10/01 03:50:40;;;;;;;6.50;3.05;;;11.50;99.90;;;;;;6244149;22;20027;-81
2022/10/01 03:53:06;;;;;;;6.72;3.58;;;11.50;99.90;;;;;;6244111;22;20114;-79
2022/10/01 03:55:32;;;;;;;4.68;2.50;;;11.50;99.90;;;;;;6244858;22;20024;-79
2022/10/01 03:57:58;;;;;;;5.25;3.15;;;11.50;99.90;;;;;;6242557;23;20106;-77
2022/10/01 04:00:24;;;;;;;5.72;2.72;;;11.50;99.90;;;;;;6242574;23;20020;-76
2022/10/01 04:02:50;;;;;;;5.03;2.55;;;11.60;99.90;;;;;;6247230;22;20024;-78
2022/10/01 04:05:16;;;;;;;5.53;2.33;;;11.50;99.90;;;;;;6242300;23;20012;-84
2022/10/01 04:07:42;;;;;;;5.25;2.22;;;11.60;99.90;;;;;;6245834;22;20160;-81
2022/10/01 04:10:08;;;;;;;6.82;2.92;;;11.50;99.90;;;;;;6244858;23;20432;-76
2022/10/01 04:12:34;;;;;;;4.05;2.13;;;11.60;99.90;;;;;;6244315;22;20034;-77
2022/10/01 04:15:00;;;;;;;4.32;2.75;;;11.50;99.90;;;;;;6242251;22;20051;-76
2022/10/01 04:17:26;;;;;;;4.72;2.67;;;11.60;99.90;;;;;;6242357;23;20035;-77
2022/10/01 04:19:52;;;;;;;4.97;2.55;;;11.60;99.90;;;;;;6245926;23;20139;-75
2022/10/01 04:22:18;;;;;;;5.60;2.72;;;11.60;99.90;;;;;;6249265;22;20388;-78
2022/10/01 04:24:43;;;;;;;5.10;2.90;;;11.60;99.90;;;;;;6244752;22;20046;-75
2022/10/01 04:27:09;;;;;;;4.95;2.85;;;11.60;99.90;;;;;;6218775;23;20101;-76
2022/10/01 04:29:35;;;;;;;6.07;3.17;;;11.70;99.90;;;;;;6243856;23;20105;-79
2022/10/01 04:32:02;;;;;;;6.18;3.22;;;11.70;99.90;;;;;;6242353;23;20028;-77
2022/10/01 04:37:12;;;;;;;5.95;2.95;;;11.70;99.90;;;;;;6246831;23;20491;-79
2022/10/01 04:39:38;;;;;;;6.00;2.97;;;11.70;99.90;;;;;;6245220;23;20024;-77
2022/10/01 04:42:04;;;;;;;5.85;3.38;;;11.80;99.90;;;;;;6219871;23;20031;-79
2022/10/01 04:44:30;;;;;;;9.38;3.38;;;11.80;99.90;;;;;;6244072;23;20016;-85
2022/10/01 04:46:56;;;;;;;4.70;3.40;;;11.80;99.90;;;;;;6243713;22;20031;-76
2022/10/01 04:49:22;;;;;;;6.25;3.75;;;11.80;99.90;;;;;;6243923;23;20024;-83
2022/10/01 04:51:48;;;;;;;6.35;3.88;;;11.80;99.90;;;;;;6243441;23;20131;-83
2022/10/01 04:54:16;;;;;;;8.02;4.30;;;11.80;99.90;;;;;;6241914;23;20602;-83
2022/10/01 04:56:42;;;;;;;10.73;4.97;;;11.80;99.90;;;;;;6241885;23;20043;-80
2022/10/01 04:59:08;;;;;;;7.35;4.50;;;11.80;99.90;;;;;;6243203;22;20031;-75
2022/10/01 05:01:34;;;;;;;10.57;4.03;;;11.80;99.90;;;;;;6241894;23;20022;-75
2022/10/01 05:04:00;;;;;;;6.47;4.30;;;11.80;99.90;;;;;;6244194;22;20081;-85
2022/10/01 05:06:26;;;;;;;10.77;4.78;;;11.80;99.90;;;;;;6242053;23;20020;-82
2022/10/01 05:08:51;;;;;;;9.70;4.22;;;11.80;99.90;;;;;;6244722;22;20043;-78
2022/10/01 05:11:17;;;;;;;7.70;3.80;;;11.90;99.90;;;;;;6242773;23;20086;-76
2022/10/01 05:13:44;;;;;;;10.85;5.07;;;11.90;99.90;;;;;;6243933;22;20060;-75
2022/10/01 05:16:10;;;;;;;6.45;4.70;;;11.90;99.90;;;;;;6216476;23;20467;-76
2022/10/01 05:18:39;;;;;;;8.10;4.70;;;11.90;99.90;;;;;;6243651;22;20059;-78
2022/10/01 05:21:06;;;;;;;8.77;4.93;;;11.90;99.90;;;;;;6241832;23;20087;-76
2022/10/01 05:23:32;;;;;;;7.20;4.45;;;11.90;99.90;;;;;;6243484;22;20059;-77
2022/10/01 05:25:59;;;;;;;8.02;5.57;;;11.90;99.90;;;;;;6243410;22;20028;-76
2022/10/01 05:28:28;;;;;;;8.05;5.40;;;12.00;99.90;;;;;;6243250;22;20020;-78
2022/10/01 05:30:55;;;;;;;10.02;5.65;;;12.00;99.90;;;;;;6243473;23;20055;-76
2022/10/01 05:33:21;;;;;;;11.82;6.35;;;12.00;99.90;;;;;;6241907;23;20467;-77
2022/10/01 05:35:46;;;;;;;12.13;5.97;;;12.00;99.90;;;;;;6241898;23;20024;-80
2022/10/01 05:38:12;;;;;;;12.32;6.22;;;12.00;99.90;;;;;;6218310;23;20034;-79
2022/10/01 05:40:38;;;;;;;12.05;7.18;;;12.00;99.90;;;;;;6217057;23;20024;-78
2022/10/01 05:43:04;;;;;;;11.00;7.22;;;12.00;99.90;;;;;;6242108;23;20059;-78
2022/10/01 05:45:31;;;;;;;11.75;7.10;;;12.10;99.90;;;;;;6241660;23;20031;-81
2022/10/01 05:48:01;;;;;;;14.25;7.25;;;12.10;99.90;;;;;;6241693;23;20066;-76
2022/10/01 05:50:30;;;;;;;12.90;8.18;;;12.10;99.90;;;;;;6243270;22;20024;-77
2022/10/01 05:52:56;;;;;;;19.38;7.57;;;12.10;99.90;;;;;;6241520;23;20027;-78
2022/10/01 05:55:23;;;;;;;16.20;7.97;;;12.10;99.90;;;;;;6241879;23;20020;-76
2022/10/01 05:57:56;;;;;;;15.13;7.90;;;12.10;99.90;;;;;;6243246;22;20024;-77
2022/10/01 06:00:23;;;;;;;12.48;7.18;;;12.10;99.90;;;;;;6243748;22;20032;-78
2022/10/01 06:02:51;;;;;;;17.83;9.18;;;12.10;99.90;;;;;;6242281;23;20071;-79
2022/10/01 06:05:17;;;;;;;12.25;7.07;;;12.10;99.90;;;;;;6244848;22;20353;-76
2022/10/01 06:07:43;;;;;;;18.92;8.23;;;12.10;99.90;;;;;;6242055;23;20024;-75
2022/10/01 06:10:09;;;;;;;19.38;7.82;;;12.10;99.90;;;;;;6243827;22;20031;-76
2022/10/01 06:12:35;;;;;;;14.68;6.20;;;12.10;99.90;;;;;;6243255;22;20024;-76
2022/10/01 06:15:01;;;;;;;13.43;6.90;;;12.10;99.90;;;;;;6241203;22;20047;-77
2022/10/01 06:17:27;;;;;;;22.92;7.50;;;12.10;99.90;;;;;;6241300;23;20700;-79
2022/10/01 06:19:53;;;;;;;18.35;6.53;;;12.10;99.90;;;;;;6243391;23;20091;-77
2022/10/01 06:22:18;;;;;;;14.25;5.53;;;12.10;99.90;;;;;;6215907;23;20403;-76
2022/10/01 06:24:44;;;;;;;15.55;5.70;;;12.20;99.90;;;;;;6242729;23;20094;-78
2022/10/01 06:27:10;;;;;;;15.68;4.50;;;12.10;99.90;;;;;;6242935;22;20027;-79
2022/10/01 06:29:36;;;;;;;18.63;6.15;;;12.20;99.90;;;;;;6241075;23;20091;-78
2022/10/01 06:32:02;;;;;;;14.30;6.03;;;12.20;99.90;;;;;;6216212;23;20338;-78
2022/10/01 06:34:28;;;;;;;20.23;5.45;;;12.20;99.90;;;;;;6241118;23;20024;-77
2022/10/01 06:36:54;;;;;;;17.92;5.20;;;12.20;99.90;;;;;;6242826;23;20100;-79
2022/10/01 06:39:20;;;;;;;20.13;5.85;;;12.20;99.90;;;;;;6243983;22;20020;-81
2022/10/01 06:41:47;;;;;;;18.70;5.68;;;12.30;99.90;;;;;;6244640;23;20415;-79
2022/10/01 06:44:12;;;;;;;17.15;4.25;;;12.30;99.90;;;;;;6243098;23;20065;-85
2022/10/01 06:46:38;;;;;;;17.90;4.88;;;12.40;99.90;;;;;;6245006;23;20024;-82
2022/10/01 06:49:04;;;;;;;17.35;4.90;;;12.40;99.90;;;;;;6244995;22;20352;-78
2022/10/01 06:54:16;;;;;;;18.33;5.37;;;12.50;99.90;;;;;;6243228;23;20468;-82
2022/10/01 06:56:42;;;;;;;19.50;5.40;;;12.60;99.90;;;;;;6244618;22;20495;-84
2022/10/01 06:59:08;;;;;;;18.08;4.35;;;12.60;99.90;;;;;;6244379;22;20024;-86
2022/10/01 07:01:35;;;;;;;19.27;4.05;;;12.70;99.90;;;;;;6242824;23;20074;-78
2022/10/01 07:04:01;;;;;;;18.40;4.57;;;12.70;99.90;;;;;;6243020;23;20024;-79
2022/10/01 07:06:27;;;;;;;20.77;4.63;;;12.80;99.90;;;;;;6244856;22;20059;-78
2022/10/01 07:08:54;;;;;;;14.88;3.83;;;12.80;99.90;;;;;;6245025;22;20035;-80
2022/10/01 07:11:20;;;;;;;19.30;4.38;;;12.80;99.90;;;;;;6245140;22;20020;-82
2022/10/01 07:13:45;;;;;;;12.50;3.78;;;12.90;99.90;;;;;;6242670;23;20031;-80
2022/10/01 07:16:11;;;;;;;15.93;4.40;;;13.00;99.90;;;;;;6244352;22;20024;-78
2022/10/01 07:18:37;;;;;;;19.92;4.07;;;13.00;99.90;;;;;;6244607;22;20032;-81
2022/10/01 07:21:03;;;;;;;17.75;3.78;;;13.20;99.90;;;;;;6244192;22;20360;-76
2022/10/01 07:23:29;;;;;;;25.20;4.15;;;13.20;99.90;;;;;;6242738;23;20024;-82
2022/10/01 07:25:55;;;;;;;24.30;3.80;;;13.30;99.90;;;;;;6217729;23;20027;-78
2022/10/01 07:28:24;;;;;;;21.45;3.33;;;13.40;99.90;;;;;;6244060;23;20024;-77
2022/10/01 07:30:58;;;;;;;20.20;3.65;;;13.50;99.90;;;;;;6244401;22;20449;-85
2022/10/01 07:33:24;;;;;;;14.25;3.42;;;13.60;99.90;;;;;;6244380;22;20027;-77
2022/10/01 07:35:50;;;;;;;19.85;3.78;;;13.70;99.90;;;;;;6244153;22;20027;-78
2022/10/01 07:38:16;;;;;;;13.75;3.22;;;13.70;99.90;;;;;;6244107;23;20085;-79
2022/10/01 07:40:42;;;;;;;16.33;2.40;;;13.80;99.90;;;;;;6243127;23;20364;-76
2022/10/01 07:43:08;;;;;;;18.40;3.70;;;13.90;99.90;;;;;;6244316;22;20034;-75
2022/10/01 07:45:34;;;;;;;19.15;3.03;;;13.90;99.90;;;;;;6242761;23;20031;-81
2022/10/01 07:48:01;;;;;;;17.58;2.65;;;13.90;99.90;;;;;;6242966;23;20020;-77
2022/10/01 07:50:31;;;;;;;17.20;3.03;;;14.00;99.90;;;;;;6242485;23;20342;-82
2022/10/01 07:52:58;;;;;;;16.65;3.00;;;14.00;99.90;;;;;;6243839;22;20099;-76
2022/10/01 07:55:26;;;;;;;15.80;2.30;;;14.10;99.90;;;;;;6244576;22;20016;-77
2022/10/01 07:57:53;;;;;;;11.77;2.42;;;14.10;99.90;;;;;;6244084;22;20028;-77
2022/10/01 08:00:20;;;;;;;12.88;2.88;;;14.20;99.90;;;;;;6244233;22;20146;-76
2022/10/01 08:02:48;;;;;;;19.33;3.38;;;14.20;99.90;;;;;;6242565;23;20063;-77
2022/10/01 08:05:17;;;;;;;14.35;3.30;;;14.30;99.90;;;;;;6242222;23;20520;-76
2022/10/01 08:07:45;;;;;;;20.27;3.92;;;14.30;99.90;;;;;;6243930;23;20024;-77
2022/10/01 08:10:11;;;;;;;15.65;3.28;;;14.40;99.90;;;;;;6242594;23;20020;-80
2022/10/01 08:12:37;;;;;;;14.32;2.53;;;14.40;99.90;;;;;;6244016;22;20028;-79
2022/10/01 08:15:09;;;;;;;11.45;2.65;;;14.50;99.90;;;;;;6243042;22;20456;-83
2022/10/01 08:17:36;;;;;;;17.98;3.58;;;14.50;99.90;;;;;;6245325;23;20020;-84
2022/10/01 08:20:03;;;;;;;19.05;2.60;;;14.60;99.90;;;;;;6244193;23;20644;-82
2022/10/01 08:22:28;;;;;;;12.27;2.78;;;14.70;99.90;;;;;;6243472;22;20055;-77
2022/10/01 08:24:54;;;;;;;15.70;2.70;;;14.80;99.90;;;;;;6244157;22;20028;-77
2022/10/01 08:27:23;;;;;;;14.15;2.95;;;15.00;99.90;;;;;;6242167;23;20409;-75
2022/10/01 08:29:50;;;;;;;18.15;3.17;;;15.10;99.90;;;;;;6241962;23;20097;-79
2022/10/01 08:32:15;;;;;;;15.43;2.15;;;15.30;99.90;;;;;;6242202;23;20030;-79
2022/10/01 08:34:41;;;;;;;17.25;2.92;;;15.40;99.90;;;;;;6242263;23;20060;-79
2022/10/01 08:37:07;;;;;;;13.43;2.05;;;15.50;99.90;;;;;;6216708;23;20024;-81
2022/10/01 08:39:33;;;;;;;16.23;2.90;;;15.40;99.90;;;;;;6244547;22;20030;-81
2022/10/01 08:42:23;;;;;;;14.25;2.75;;;15.30;99.90;;;;;;6244640;23;20344;-85
2022/10/01 08:44:51;;;;;;;20.80;3.00;;;15.20;99.90;;;;;;6234503;23;20028;-77
2022/10/01 08:47:37;;;;;;;15.88;3.20;;;15.00;99.90;;;;;;6244563;22;20027;-81
2022/10/01 08:50:15;;;;;;;21.67;3.75;;;14.80;99.90;;;;;;6243411;22;20024;-75
2022/10/01 08:52:53;;;;;;;11.82;2.50;;;14.60;99.90;;;;;;6243484;22;20356;-78
2022/10/01 08:55:25;;;;;;;9.63;1.83;;;14.40;99.90;;;;;;6267584;22;20028;-76
2022/10/01 08:57:58;;;;;;;15.77;3.00;;;14.20;99.90;;;;;;6242315;23;20528;-76
2022/10/01 09:00:23;;;;;;;13.35;2.30;;;14.10;99.90;;;;;;6241929;23;20091;-75
2022/10/01 09:02:51;;;;;;;13.23;2.15;;;14.00;99.90;;;;;;6241600;23;20067;-74
2022/10/01 09:05:40;;;;;;;14.27;2.80;;;14.10;99.90;;;;;;6243915;22;20126;-76
2022/10/01 09:08:42;;;;;;;15.57;3.63;;;14.30;99.90;;;;;;6241729;23;20031;-77
2022/10/01 09:11:20;;;;;;;13.48;2.70;;;14.60;99.90;;;;;;6216350;23;20024;-76
2022/10/01 09:14:08;;;;;;;22.63;3.40;;;14.90;99.90;;;;;;6243333;22;20020;-77
2022/10/01 09:16:58;;;;;;;12.73;3.28;;;15.20;99.90;;;;;;6241641;23;20024;-75
2022/10/01 09:19:55;;;;;;;14.27;2.60;;;15.40;99.90;;;;;;6241763;23;20102;-77
2022/10/01 09:22:57;;;;;;;13.38;2.42;;;15.60;99.90;;;;;;6243138;22;20043;-77
2022/10/01 09:25:26;;;;;;;10.70;1.98;;;15.90;99.90;;;;;;6241624;23;20031;-76
2022/10/01 09:28:20;;;;;;;7.35;1.90;;;16.10;99.90;;;;;;6216397;23;20024;-78
2022/10/01 09:31:17;;;;;;;5.63;1.17;;;16.00;99.90;;;;;;6242006;23;20020;-77
2022/10/01 09:34:14;;;;;;;6.45;1.00;;;15.60;99.90;;;;;;6229397;23;20095;-76
2022/10/01 09:36:55;;;;;;;10.70;2.42;;;15.20;99.90;;;;;;6241394;23;20449;-75
2022/10/01 09:39:47;;;;;;;8.45;1.80;;;14.70;99.90;;;;;;6243261;22;20020;-73
2022/10/01 09:42:13;;;;;;;13.82;1.77;;;14.30;99.90;;;;;;6216077;23;20453;-74
2022/10/01 09:44:41;;;;;;;8.88;1.63;;;14.10;99.90;;;;;;6241666;23;20035;-73
2022/10/01 09:47:19;;;;;;;11.90;1.80;;;13.90;99.90;;;;;;6241446;23;20444;-74
2022/10/01 09:49:47;;;;;;;10.82;1.40;;;13.80;99.90;;;;;;6241473;23;20107;-77
2022/10/01 09:52:20;;;;;;;18.83;2.38;;;13.70;99.90;;;;;;6241690;23;20082;-77
2022/10/01 09:54:52;;;;;;;19.08;2.95;;;13.90;99.90;;;;;;6242041;23;20067;-77
2022/10/01 09:57:34;;;;;;;12.63;2.33;;;14.00;99.90;;;;;;6243792;22;20020;-76
2022/10/01 10:00:17;;;;;;;16.42;2.40;;;14.30;99.90;;;;;;6243839;22;20035;-77
2022/10/01 10:02:45;;;;;;;20.52;2.38;;;14.70;99.90;;;;;;6241291;23;20020;-77
2022/10/01 10:05:19;;;;;;;17.33;2.78;;;14.90;99.90;;;;;;6241240;23;20540;-83
2022/10/01 10:07:48;;;;;;;;;;;14.90;99.90;;;;;;6241717;23;20115;-78
2022/10/01 10:10:27;;;;;;;15.93;4.25;;;14.80;99.90;;;;;;6216072;23;19919;-76
2022/10/01 10:12:57;;;;;;;11.43;1.90;;;14.60;99.90;;;;;;6216274;23;20027;-79
2022/10/01 10:15:27;;;;;;;11.70;1.35;;;14.50;99.90;;;;;;6243504;22;20340;-81
2022/10/01 10:17:54;;;;;;;15.38;1.77;;;14.40;99.90;;;;;;6243463;23;20074;-77
2022/10/01 10:20:37;;;;;;;11.85;1.98;;;14.20;99.90;;;;;;6242797;23;20516;-77
2022/10/01 10:23:17;;;;;;;11.75;2.00;;;14.00;99.90;;;;;;6245796;22;20066;-80
2022/10/01 10:25:52;;;;;;;12.63;2.10;;;14.00;99.90;;;;;;6244288;23;20114;-78
2022/10/01 10:28:23;;;;;;;12.18;2.25;;;13.90;99.90;;;;;;6243570;23;20027;-78
2022/10/01 10:30:54;;;;;;;12.40;1.75;;;13.80;99.90;;;;;;6245547;22;20024;-77
2022/10/01 10:33:23;;;;;;;7.85;1.20;;;13.70;99.90;;;;;;6245302;22;20028;-77
2022/10/01 10:36:04;;;;;;;5.28;1.33;;;13.60;99.90;;;;;;6243531;23;20020;-78
2022/10/01 10:38:34;;;;;;;7.47;1.20;;;13.50;99.90;;;;;;6242878;23;20059;-78
2022/10/01 10:41:02;;;;;;;9.90;1.35;;;13.40;99.90;;;;;;6244266;23;20166;-81
2022/10/01 10:43:35;;;;;;;8.00;1.70;;;13.30;99.90;;;;;;6244215;23;20081;-76
2022/10/01 10:46:02;;;;;;;12.43;2.25;;;13.30;99.90;;;;;;6246125;22;20056;-76
2022/10/01 10:48:32;;;;;;;16.73;2.28;;;13.30;99.90;;;;;;6243885;23;20078;-76
2022/10/01 10:51:00;;;;;;;14.13;1.45;;;13.30;99.90;;;;;;6246311;22;20082;-75
2022/10/01 10:53:32;;;;;;;8.07;1.67;;;13.40;99.90;;;;;;6218672;23;20024;-80
2022/10/01 10:56:04;;;;;;;13.00;1.98;;;13.50;99.90;;;;;;6221636;23;20020;-78
2022/10/01 10:58:33;;;;;;;8.32;1.60;;;13.60;99.90;;;;;;6244334;23;20035;-82
2022/10/01 11:01:07;;;;;;;9.68;1.98;;;13.70;99.90;;;;;;6244613;22;20027;-83
2022/10/01 11:03:36;;;;;;;13.45;2.03;;;14.00;99.90;;;;;;6245373;22;20115;-79
2022/10/01 11:06:13;;;;;;;9.75;1.85;;;14.50;99.90;;;;;;6245224;22;20104;-76
2022/10/01 11:08:40;;;;;;;9.63;1.63;;;15.10;99.90;;;;;;6245058;22;20019;-77
2022/10/01 11:11:36;;;;;;;9.40;1.50;;;15.60;99.90;;;;;;6244974;22;20025;-81
2022/10/01 11:14:06;;;;;;;13.82;1.88;;;16.20;99.90;;;;;;6244617;22;20031;-80
2022/10/01 11:16:53;;;;;;;11.70;1.38;;;16.10;99.90;;;;;;6244515;22;20028;-79
2022/10/01 11:20:02;;;;;;;14.55;1.95;;;15.90;99.90;;;;;;6242852;23;20027;-77
2022/10/01 11:22:37;;;;;;;15.65;2.60;;;16.30;99.90;;;;;;6243053;23;20527;-83
2022/10/01 11:25:21;;;;;;;19.00;2.65;;;16.70;99.90;;;;;;6245297;23;20087;-79
2022/10/01 11:27:50;;;;;;;15.10;3.53;;;16.90;99.90;;;;;;6242225;23;20024;-76
2022/10/01 11:30:24;;;;;;;14.48;2.30;;;16.70;99.90;;;;;;6243074;23;20313;-77
2022/10/01 11:32:59;;;;;;;7.78;1.80;;;16.80;99.90;;;;;;6243838;23;20028;-81
2022/10/01 11:35:43;;;;;;;18.58;3.00;;;17.20;99.90;;;;;;6245242;22;20090;-77
2022/10/01 11:38:47;;;;;;;11.35;2.30;;;17.90;99.90;;;;;;6244822;22;20455;-81
2022/10/01 11:41:38;;;;;;;16.38;3.28;;;17.90;99.90;;;;;;6242730;23;20368;-78
2022/10/01 11:44:28;;;;;;;17.50;2.83;;;17.90;99.90;;;;;;6242709;23;20026;-77
2022/10/01 11:47:19;;;;;;;16.23;2.72;;;17.70;99.90;;;;;;6245640;22;20016;-85
2022/10/01 11:49:49;;;;;;;20.55;3.92;;;17.60;99.90;;;;;;6246178;22;20031;-77
2022/10/01 11:52:51;;;;;;;15.25;3.13;;;17.40;99.90;;;;;;6242920;23;20091;-78
2022/10/01 11:58:50;;;;;;;18.35;2.63;;;17.60;99.90;;;;;;6244146;23;20091;-78
2022/10/01 12:01:34;;;;;;;14.85;2.67;;;17.50;99.90;;;;;;6244834;22;20024;-78
2022/10/01 12:04:16;;;;;;;14.60;3.15;;;17.60;99.90;;;;;;6244627;23;20098;-78
2022/10/01 12:06:56;;;;;;;14.68;2.63;;;17.50;99.90;;;;;;6242803;23;20032;-83
2022/10/01 12:09:31;;;;;;;13.95;2.22;;;17.50;99.90;;;;;;6244434;23;20028;-81
2022/10/01 12:12:10;;;;;;;14.18;3.15;;;17.50;99.90;;;;;;6246140;22;20495;-79
2022/10/01 12:15:00;;;;;;;15.95;2.78;;;18.00;99.90;;;;;;6244675;22;20027;-78
2022/10/01 12:17:51;;;;;;;14.82;2.45;;;18.00;99.90;;;;;;6247335;22;20020;-77
2022/10/01 12:20:36;;;;;;;11.40;2.60;;;17.70;99.90;;;;;;6243590;23;20031;-77
2022/10/01 12:23:04;;;;;;;17.63;3.80;;;17.50;99.90;;;;;;6243792;22;20060;-79
2022/10/01 12:25:47;;;;;;;12.95;2.35;;;17.50;99.90;;;;;;6242294;23;20026;-81
2022/10/01 12:28:25;;;;;;;14.55;2.83;;;17.40;99.90;;;;;;6243211;23;20086;-78
2022/10/01 12:31:02;;;;;;;10.18;2.33;;;18.10;99.90;;;;;;6242782;23;20433;-85
2022/10/01 12:33:58;;;;;;;18.05;3.15;;;18.70;99.90;;;;;;6244253;22;20096;-80
2022/10/01 12:36:30;;;;;;;15.05;1.90;;;20.30;99.90;;;;;;6245930;22;20043;-79
2022/10/01 12:39:04;;;;;;;12.50;2.42;;;21.50;99.90;;;;;;6243695;22;20103;-79
2022/10/01 12:41:40;;;;;;;;;;;22.30;99.90;;;;;;6245901;22;20459;-80
2022/10/01 12:44:31;;;;;;;11.65;2.50;;;23.30;99.90;;;;;;6243474;22;20386;-78
2022/10/01 12:47:13;;;;;;;14.77;2.17;;;24.00;98.40;;;;;;6239732;23;20118;-77
2022/10/01 12:50:03;;;;;;;15.50;2.22;;;24.70;95.00;;;;;;6243586;22;20024;-79
2022/10/01 12:52:49;;;;;;;7.80;1.80;;;25.30;93.80;;;;;;6236113;23;20027;-80
2022/10/01 12:55:28;;;;;;;9.88;1.77;;;25.90;91.90;;;;;;6244401;22;20376;-78
2022/10/01 12:58:23;;;;;;;12.18;2.55;;;25.30;92.50;;;;;;6243819;22;20024;-79
2022/10/01 13:01:13;;;;;;;14.48;2.42;;;23.90;93.00;;;;;;6242623;23;20016;-80
2022/10/01 13:04:02;;;;;;;10.63;1.45;;;22.00;96.60;;;;;;6213690;23;20023;-84
2022/10/01 13:06:53;;;;;;;17.35;2.53;;;20.50;98.10;;;;;;6244046;23;20101;-87
2022/10/01 13:09:45;;;;;;;12.82;2.38;;;19.30;99.90;;;;;;6242379;23;20447;-79
2022/10/01 13:12:34;;;;;;;11.60;2.05;;;18.30;99.90;;;;;;6243700;22;20319;-80
2022/10/01 13:15:01;;;;;;;12.10;1.85;;;17.40;99.90;;;;;;6243319;22;20024;-87
2022/10/01 13:17:42;;;;;;;11.60;2.33;;;16.80;99.90;;;;;;6245573;22;20032;-84